createdAt,value
2022-12-24T00:01:05.594Z,11.93
2022-12-24T00:03:33.746Z,11.91
2022-12-24T00:06:07.915Z,11.89
2022-12-24T00:08:35.249Z,11.84
2022-12-24T00:11:02.497Z,11.86
2022-12-24T00:13:29.323Z,11.86
2022-12-24T00:15:56.053Z,11.84
2022-12-24T00:18:22.920Z,11.85
2022-12-24T00:20:50.975Z,11.83
2022-12-24T00:23:18.311Z,11.82
2022-12-24T00:25:45.538Z,11.81
2022-12-24T00:28:13.419Z,11.77
2022-12-24T00:30:42.567Z,11.76
2022-12-24T00:33:10.245Z,11.74
2022-12-24T00:35:38.916Z,11.76
2022-12-24T00:38:06.088Z,11.74
2022-12-24T00:40:33.514Z,11.73
2022-12-24T00:43:00.543Z,11.72
2022-12-24T00:45:28.062Z,11.68
2022-12-24T00:47:55.230Z,11.60
2022-12-24T00:50:21.994Z,11.46
2022-12-24T00:52:48.731Z,11.30
2022-12-24T00:55:15.681Z,11.13
2022-12-24T00:57:42.468Z,11.04
2022-12-24T01:00:09.733Z,10.95
2022-12-24T01:02:36.718Z,10.91
2022-12-24T01:05:12.814Z,10.87
2022-12-24T01:07:44.182Z,10.80
2022-12-24T01:10:17.958Z,10.76
2022-12-24T01:12:45.463Z,10.70
2022-12-24T01:15:14.501Z,10.68
2022-12-24T01:17:41.355Z,10.67
2022-12-24T01:20:13.342Z,10.66
2022-12-24T01:22:40.104Z,10.62
2022-12-24T01:25:07.203Z,10.62
2022-12-24T01:27:33.992Z,10.65
2022-12-24T01:30:00.963Z,10.64
2022-12-24T01:32:27.817Z,10.59
2022-12-24T01:34:54.617Z,10.58
2022-12-24T01:37:21.437Z,10.58
2022-12-24T01:39:48.236Z,10.58
2022-12-24T01:42:41.496Z,10.59
2022-12-24T01:45:36.524Z,10.59
2022-12-24T01:48:05.057Z,10.58
2022-12-24T01:50:31.943Z,10.59
2022-12-24T01:52:58.982Z,10.56
2022-12-24T01:55:26.154Z,10.47
2022-12-24T01:57:56.459Z,10.39
2022-12-24T02:00:23.626Z,10.36
2022-12-24T02:02:53.441Z,10.37
2022-12-24T02:05:57.504Z,10.36
2022-12-24T02:08:24.258Z,10.32
2022-12-24T02:10:51.084Z,10.31
2022-12-24T02:13:20.967Z,10.29
2022-12-24T02:16:01.505Z,10.29
2022-12-24T02:18:43.476Z,10.28
2022-12-24T02:21:56.441Z,10.26
2022-12-24T02:25:02.358Z,10.24
2022-12-24T02:27:35.053Z,10.23
2022-12-24T02:30:11.564Z,10.20
2022-12-24T02:33:17.408Z,10.20
2022-12-24T02:35:59.943Z,10.19
2022-12-24T02:38:35.259Z,10.18
2022-12-24T02:41:12.895Z,10.16
2022-12-24T02:43:44.027Z,10.14
2022-12-24T02:46:21.819Z,10.16
2022-12-24T02:48:49.601Z,10.16
2022-12-24T02:51:16.836Z,10.16
2022-12-24T02:53:43.617Z,10.17
2022-12-24T02:56:30.476Z,10.16
2022-12-24T02:59:16.160Z,10.16
2022-12-24T03:02:03.325Z,10.19
2022-12-24T03:04:56.955Z,10.18
2022-12-24T03:07:33.705Z,10.20
2022-12-24T03:10:18.703Z,10.22
2022-12-24T03:12:54.543Z,10.23
2022-12-24T03:15:23.990Z,10.27
2022-12-24T03:17:55.499Z,10.27
2022-12-24T03:20:28.510Z,10.27
2022-12-24T03:22:55.540Z,10.28
2022-12-24T03:25:25.362Z,10.29
2022-12-24T03:27:52.828Z,10.30
2022-12-24T03:30:20.782Z,10.31
2022-12-24T03:32:47.646Z,10.31
2022-12-24T03:35:14.572Z,10.30
2022-12-24T03:37:41.368Z,10.28
2022-12-24T03:40:08.829Z,10.27
2022-12-24T03:42:35.793Z,10.27
2022-12-24T03:45:02.651Z,10.27
2022-12-24T03:47:30.588Z,10.26
2022-12-24T03:49:57.403Z,10.26
2022-12-24T03:52:24.581Z,10.24
2022-12-24T03:54:51.659Z,10.22
2022-12-24T03:57:18.440Z,10.23
2022-12-24T03:59:45.189Z,10.24
2022-12-24T04:02:12.069Z,10.22
2022-12-24T04:04:39.054Z,10.20
2022-12-24T04:07:06.581Z,10.14
2022-12-24T04:09:33.751Z,10.12
2022-12-24T04:12:00.801Z,10.07
2022-12-24T04:14:27.545Z,10.05
2022-12-24T04:16:54.370Z,10.06
2022-12-24T04:19:21.140Z,10.05
2022-12-24T04:21:47.918Z,10.02
2022-12-24T04:24:14.627Z,9.97
2022-12-24T04:26:41.379Z,9.93
2022-12-24T04:29:08.236Z,9.87
2022-12-24T04:31:35.029Z,9.80
2022-12-24T04:34:01.959Z,9.69
2022-12-24T04:36:29.980Z,9.63
2022-12-24T04:38:56.786Z,9.59
2022-12-24T04:41:25.127Z,9.56
2022-12-24T04:43:53.759Z,9.53
2022-12-24T04:46:24.116Z,9.56
2022-12-24T04:48:53.152Z,9.57
2022-12-24T04:51:20.735Z,9.57
2022-12-24T04:53:47.495Z,9.54
2022-12-24T04:56:20.348Z,9.53
2022-12-24T04:58:47.782Z,9.53
2022-12-24T05:01:18.911Z,9.62
2022-12-24T05:03:46.159Z,9.66
2022-12-24T05:06:15.179Z,9.69
2022-12-24T05:08:43.708Z,9.71
2022-12-24T05:11:14.168Z,9.72
2022-12-24T05:13:46.601Z,9.72
2022-12-24T05:16:15.872Z,9.75
2022-12-24T05:18:42.866Z,9.74
2022-12-24T05:21:13.235Z,9.75
2022-12-24T05:23:58.827Z,9.76
2022-12-24T05:26:31.218Z,9.81
2022-12-24T05:29:00.265Z,9.83
2022-12-24T05:31:29.013Z,9.86
2022-12-24T05:33:55.893Z,9.87
2022-12-24T05:36:23.411Z,9.89
2022-12-24T05:38:50.632Z,9.93
2022-12-24T05:41:17.512Z,9.94
2022-12-24T05:43:44.556Z,9.94
2022-12-24T05:46:13.704Z,9.97
2022-12-24T05:48:40.767Z,9.95
2022-12-24T05:51:09.766Z,9.91
2022-12-24T05:53:37.266Z,9.89
2022-12-24T05:56:12.747Z,9.87
2022-12-24T05:58:40.577Z,9.87
2022-12-24T06:01:08.119Z,9.82
2022-12-24T06:03:35.759Z,9.79
2022-12-24T06:06:04.044Z,9.71
2022-12-24T06:08:31.817Z,9.68
2022-12-24T06:11:01.056Z,9.70
2022-12-24T06:13:28.450Z,9.71
2022-12-24T06:15:56.648Z,9.77
2022-12-24T06:18:23.672Z,9.79
2022-12-24T06:20:55.229Z,9.70
2022-12-24T06:23:24.752Z,9.64
2022-12-24T06:25:51.917Z,9.64
2022-12-24T06:28:18.744Z,9.65
2022-12-24T06:30:55.803Z,9.66
2022-12-24T06:33:25.498Z,9.63
2022-12-24T06:35:52.510Z,9.57
2022-12-24T06:38:19.342Z,9.51
2022-12-24T06:40:49.433Z,9.46
2022-12-24T06:43:16.369Z,9.46
2022-12-24T06:45:47.907Z,9.58
2022-12-24T06:48:15.745Z,9.67
2022-12-24T06:50:43.114Z,9.74
2022-12-24T06:53:10.161Z,9.78
2022-12-24T06:55:37.419Z,9.86
2022-12-24T06:58:04.438Z,9.88
2022-12-24T07:00:31.768Z,9.89
2022-12-24T07:02:59.153Z,9.90
2022-12-24T07:05:26.483Z,9.91
2022-12-24T07:07:53.290Z,9.89
2022-12-24T07:10:20.767Z,9.84
2022-12-24T07:12:48.141Z,9.85
2022-12-24T07:15:16.193Z,9.83
2022-12-24T07:17:43.110Z,9.82
2022-12-24T07:20:13.682Z,9.79
2022-12-24T07:22:40.640Z,9.78
2022-12-24T07:25:08.067Z,9.77
2022-12-24T07:27:34.949Z,9.77
2022-12-24T07:30:06.062Z,9.76
2022-12-24T07:32:32.940Z,9.70
2022-12-24T07:35:00.131Z,9.69
2022-12-24T07:37:27.031Z,9.66
2022-12-24T07:39:54.019Z,9.60
2022-12-24T07:42:21.017Z,9.56
2022-12-24T07:44:47.943Z,9.55
2022-12-24T07:47:14.725Z,9.51
2022-12-24T07:49:41.567Z,9.42
2022-12-24T07:52:08.861Z,9.38
2022-12-24T07:54:35.807Z,9.39
2022-12-24T07:57:02.570Z,9.43
2022-12-24T07:59:29.405Z,9.47
2022-12-24T08:01:56.324Z,9.54
2022-12-24T08:04:25.471Z,9.56
2022-12-24T08:06:52.149Z,9.56
2022-12-24T08:09:19.003Z,9.59
2022-12-24T08:11:51.709Z,9.62
2022-12-24T08:14:19.761Z,9.60
2022-12-24T08:16:46.656Z,9.52
2022-12-24T08:19:14.733Z,9.48
2022-12-24T08:21:41.538Z,9.44
2022-12-24T08:24:08.603Z,9.45
2022-12-24T08:26:35.493Z,9.49
2022-12-24T08:29:03.914Z,9.56
2022-12-24T08:31:31.037Z,9.63
2022-12-24T08:33:57.853Z,9.68
2022-12-24T08:36:24.657Z,9.74
2022-12-24T08:38:51.678Z,9.73
2022-12-24T08:41:18.449Z,9.73
2022-12-24T08:43:45.268Z,9.72
2022-12-24T08:46:12.305Z,9.73
2022-12-24T08:48:42.256Z,9.71
2022-12-24T08:51:10.855Z,9.71
2022-12-24T08:53:38.376Z,9.65
2022-12-24T08:56:07.621Z,9.61
2022-12-24T08:58:34.451Z,9.58
2022-12-24T09:01:01.822Z,9.56
2022-12-24T09:03:28.783Z,9.58
2022-12-24T09:05:55.794Z,9.62
2022-12-24T09:08:22.748Z,9.65
2022-12-24T09:10:49.557Z,9.71
2022-12-24T09:13:19.395Z,9.80
2022-12-24T09:16:01.782Z,9.86
2022-12-24T09:18:29.079Z,9.89
2022-12-24T09:20:59.826Z,9.86
2022-12-24T09:23:26.811Z,9.84
2022-12-24T09:25:53.660Z,9.89
2022-12-24T09:28:20.560Z,9.91
2022-12-24T09:30:57.959Z,9.89
2022-12-24T09:33:25.553Z,9.88
2022-12-24T09:35:55.625Z,9.88
2022-12-24T09:38:23.323Z,9.86
2022-12-24T09:40:51.004Z,9.88
2022-12-24T09:43:22.794Z,9.91
2022-12-24T09:46:04.858Z,9.98
2022-12-24T09:48:35.928Z,10.00
2022-12-24T09:51:10.276Z,10.04
2022-12-24T09:54:00.299Z,10.06
2022-12-24T09:56:31.398Z,10.07
2022-12-24T09:59:04.259Z,10.07
2022-12-24T10:01:33.486Z,10.08
2022-12-24T10:04:16.483Z,10.07
2022-12-24T10:07:19.821Z,10.09
2022-12-24T10:09:58.723Z,10.14
2022-12-24T10:12:35.754Z,10.24
2022-12-24T10:15:14.803Z,10.27
2022-12-24T10:18:06.306Z,10.25
2022-12-24T10:20:45.152Z,10.29
2022-12-24T10:23:38.251Z,10.30
2022-12-24T10:26:20.295Z,10.29
2022-12-24T10:28:52.593Z,10.30
2022-12-24T10:31:25.420Z,10.28
2022-12-24T10:34:00.274Z,10.28
2022-12-24T10:36:29.726Z,10.24
2022-12-24T10:38:59.322Z,10.26
2022-12-24T10:41:28.132Z,10.24
2022-12-24T10:43:55.731Z,10.23
2022-12-24T10:46:33.180Z,10.21
2022-12-24T10:49:06.465Z,10.15
2022-12-24T10:52:27.794Z,10.15
2022-12-24T10:55:19.976Z,10.13
2022-12-24T10:58:04.895Z,10.13
2022-12-24T11:00:36.320Z,10.10
2022-12-24T11:03:11.498Z,10.08
2022-12-24T11:05:39.398Z,10.11
2022-12-24T11:08:17.256Z,10.10
2022-12-24T11:11:02.534Z,10.16
2022-12-24T11:13:49.886Z,10.15
2022-12-24T11:16:35.641Z,10.17
2022-12-24T11:19:05.592Z,10.20
2022-12-24T11:21:35.846Z,10.20
2022-12-24T11:24:18.535Z,10.18
2022-12-24T11:26:45.356Z,10.15
2022-12-24T11:29:17.493Z,10.13
2022-12-24T11:31:45.361Z,10.16
2022-12-24T11:34:29.150Z,10.18
2022-12-24T11:37:16.278Z,10.17
2022-12-24T11:40:01.126Z,10.17
2022-12-24T11:42:38.156Z,10.20
2022-12-24T11:45:24.292Z,10.22
2022-12-24T11:47:53.558Z,10.25
2022-12-24T11:50:26.411Z,10.29
2022-12-24T11:53:04.082Z,10.33
2022-12-24T11:55:44.711Z,10.31
2022-12-24T11:58:29.378Z,10.33
2022-12-24T12:01:08.742Z,10.35
2022-12-24T12:03:45.329Z,10.29
2022-12-24T12:06:38.195Z,10.31
2022-12-24T12:09:21.737Z,10.34
2022-12-24T12:12:05.633Z,10.38
2022-12-24T12:14:41.148Z,10.41
2022-12-24T12:17:22.964Z,10.39
2022-12-24T12:19:59.826Z,10.36
2022-12-24T12:23:10.829Z,10.37
2022-12-24T12:25:52.038Z,10.39
2022-12-24T12:28:23.779Z,10.49
2022-12-24T12:31:02.315Z,10.60
2022-12-24T12:33:41.136Z,10.66
2022-12-24T12:36:10.813Z,10.76
2022-12-24T12:38:38.797Z,11.05
2022-12-24T12:41:10.554Z,11.31
2022-12-24T12:43:46.250Z,11.47
2022-12-24T12:46:17.482Z,11.58
2022-12-24T12:49:18.472Z,11.64
2022-12-24T12:52:03.525Z,11.75
2022-12-24T12:54:59.018Z,11.84
2022-12-24T12:57:31.758Z,11.87
2022-12-24T13:00:11.802Z,11.88
2022-12-24T13:03:13.121Z,11.83
2022-12-24T13:05:56.821Z,11.83
2022-12-24T13:08:29.571Z,11.93
2022-12-24T13:11:22.511Z,11.97
2022-12-24T13:14:30.594Z,12.00
2022-12-24T13:17:12.665Z,11.90
2022-12-24T13:19:49.143Z,11.82
2022-12-24T13:22:18.537Z,11.81
2022-12-24T13:24:53.816Z,11.76
2022-12-24T13:27:24.803Z,11.77
2022-12-24T13:29:57.040Z,11.78
2022-12-24T13:32:37.266Z,11.79
2022-12-24T13:35:23.999Z,11.80
2022-12-24T13:37:51.857Z,11.82
2022-12-24T13:40:28.446Z,11.83
2022-12-24T13:43:01.344Z,11.79
2022-12-24T13:45:34.294Z,11.66
2022-12-24T13:48:09.547Z,11.55
2022-12-24T13:50:38.038Z,11.43
2022-12-24T13:53:06.788Z,11.38
2022-12-24T13:55:34.679Z,11.28
2022-12-24T13:58:03.947Z,11.26
2022-12-24T14:00:41.105Z,11.23
2022-12-24T14:03:14.559Z,11.16
2022-12-24T14:05:44.797Z,11.07
2022-12-24T14:08:37.425Z,11.06
2022-12-24T14:11:23.062Z,11.12
2022-12-24T14:13:51.482Z,11.10
2022-12-24T14:16:23.678Z,11.09
2022-12-24T14:19:16.287Z,11.10
2022-12-24T14:21:51.938Z,11.09
2022-12-24T14:24:42.960Z,11.09
2022-12-24T14:27:18.549Z,11.05
2022-12-24T14:30:24.915Z,11.03
2022-12-24T14:32:53.341Z,10.96
2022-12-24T14:35:29.472Z,10.88
2022-12-24T14:38:07.886Z,10.86
2022-12-24T14:40:43.202Z,10.85
2022-12-24T14:43:47.912Z,10.82
2022-12-24T14:46:28.665Z,10.77
2022-12-24T14:49:04.209Z,10.70
2022-12-24T14:51:50.772Z,10.56
2022-12-24T14:54:33.753Z,10.47
2022-12-24T14:57:09.961Z,10.42
2022-12-24T15:00:02.244Z,10.36
2022-12-24T15:02:50.064Z,10.32
2022-12-24T15:05:20.013Z,10.27
2022-12-24T15:07:57.886Z,10.25
2022-12-24T15:10:33.373Z,10.24
2022-12-24T15:13:22.014Z,10.23
2022-12-24T15:15:52.957Z,10.18
2022-12-24T15:18:25.383Z,10.19
2022-12-24T15:21:01.779Z,10.20
2022-12-24T15:23:33.814Z,10.18
2022-12-24T15:26:20.109Z,10.15
2022-12-24T15:28:47.579Z,10.16
2022-12-24T15:31:20.468Z,10.16
2022-12-24T15:33:49.019Z,10.12
2022-12-24T15:36:24.151Z,10.08
2022-12-24T15:38:53.669Z,10.00
2022-12-24T15:41:29.998Z,9.89
2022-12-24T15:44:02.865Z,9.82
2022-12-24T15:46:31.252Z,9.80
2022-12-24T15:49:01.803Z,9.77
2022-12-24T15:51:38.414Z,9.79
2022-12-24T15:54:16.172Z,9.76
2022-12-24T15:56:44.712Z,9.79
2022-12-24T15:59:38.301Z,9.78
2022-12-24T16:02:36.153Z,9.75
2022-12-24T16:05:30.215Z,9.66
2022-12-24T16:08:08.685Z,9.66
2022-12-24T16:10:44.525Z,9.66
2022-12-24T16:13:13.114Z,9.68
2022-12-24T16:15:54.532Z,9.69
2022-12-24T16:18:33.308Z,9.61
2022-12-24T16:21:00.320Z,9.61
2022-12-24T16:23:34.218Z,9.59
2022-12-24T16:26:00.953Z,9.59
2022-12-24T16:28:27.757Z,9.59
2022-12-24T16:30:56.360Z,9.56
2022-12-24T16:33:26.190Z,9.56
2022-12-24T16:35:52.911Z,9.56
2022-12-24T16:38:19.673Z,9.59
2022-12-24T16:40:47.005Z,9.59
2022-12-24T16:43:32.533Z,9.51
2022-12-24T16:46:05.296Z,9.44
2022-12-24T16:48:36.364Z,9.45
2022-12-24T16:51:03.650Z,9.35
2022-12-24T16:53:30.791Z,9.29
2022-12-24T16:55:57.624Z,9.30
2022-12-24T16:58:24.435Z,9.33
2022-12-24T17:00:51.243Z,9.42
2022-12-24T17:03:18.196Z,9.45
2022-12-24T17:05:45.328Z,9.45
2022-12-24T17:08:13.147Z,9.46
2022-12-24T17:10:40.600Z,9.45
2022-12-24T17:13:07.534Z,9.38
2022-12-24T17:15:34.453Z,9.34
2022-12-24T17:18:01.291Z,9.28
2022-12-24T17:20:28.199Z,9.27
2022-12-24T17:22:54.948Z,9.27
2022-12-24T17:25:21.754Z,9.24
2022-12-24T17:27:48.599Z,9.20
2022-12-24T17:30:16.226Z,9.17
2022-12-24T17:32:43.436Z,9.20
2022-12-24T17:35:11.114Z,9.21
2022-12-24T17:37:38.071Z,9.22
2022-12-24T17:40:09.713Z,9.22
2022-12-24T17:42:37.798Z,9.28
2022-12-24T17:45:05.564Z,9.26
2022-12-24T17:47:32.909Z,9.29
2022-12-24T17:50:00.351Z,9.31
2022-12-24T17:52:27.232Z,9.28
2022-12-24T17:54:58.824Z,9.22
2022-12-24T17:57:25.769Z,9.19
2022-12-24T17:59:52.589Z,9.16
2022-12-24T18:02:19.551Z,9.16
2022-12-24T18:04:46.656Z,9.20
2022-12-24T18:07:13.656Z,9.26
2022-12-24T18:09:43.863Z,9.26
2022-12-24T18:12:11.527Z,9.29
2022-12-24T18:14:38.800Z,9.20
2022-12-24T18:17:05.633Z,9.19
2022-12-24T18:19:32.464Z,9.13
2022-12-24T18:21:59.219Z,9.13
2022-12-24T18:24:26.024Z,9.09
2022-12-24T18:26:52.947Z,9.06
2022-12-24T18:29:19.669Z,9.03
2022-12-24T18:31:46.474Z,9.05
2022-12-24T18:34:14.086Z,9.03
2022-12-24T18:36:41.103Z,9.01
2022-12-24T18:39:09.726Z,9.01
2022-12-24T18:41:36.895Z,9.03
2022-12-24T18:44:04.077Z,9.03
2022-12-24T18:46:33.372Z,9.07
2022-12-24T18:49:02.076Z,9.10
2022-12-24T18:51:32.328Z,9.15
2022-12-24T18:53:59.279Z,9.15
2022-12-24T18:56:27.399Z,9.17
2022-12-24T18:58:57.084Z,9.18
2022-12-24T19:01:29.175Z,9.15
2022-12-24T19:03:57.800Z,9.12
2022-12-24T19:06:25.039Z,9.10
2022-12-24T19:08:57.714Z,9.05
2022-12-24T19:11:26.729Z,9.02
2022-12-24T19:13:53.740Z,9.01
2022-12-24T19:16:21.843Z,9.02
2022-12-24T19:18:49.590Z,9.04
2022-12-24T19:21:17.664Z,9.04
2022-12-24T19:23:45.569Z,9.00
2022-12-24T19:26:14.740Z,8.93
2022-12-24T19:28:42.514Z,8.90
2022-12-24T19:31:15.645Z,8.89
2022-12-24T19:33:44.865Z,8.87
2022-12-24T19:36:15.518Z,8.90
2022-12-24T19:38:42.540Z,8.89
2022-12-24T19:41:15.227Z,8.89
2022-12-24T19:43:51.277Z,8.86
2022-12-24T19:46:26.014Z,8.90
2022-12-24T19:48:55.675Z,8.90
2022-12-24T19:51:24.119Z,8.86
2022-12-24T19:53:52.267Z,8.84
2022-12-24T19:56:20.618Z,8.86
2022-12-24T19:58:48.352Z,8.91
2022-12-24T20:01:21.398Z,8.97
2022-12-24T20:03:49.566Z,8.99
2022-12-24T20:06:18.453Z,9.00
2022-12-24T20:08:45.670Z,8.99
2022-12-24T20:11:18.168Z,8.99
2022-12-24T20:13:45.764Z,8.98
2022-12-24T20:16:18.736Z,8.99
2022-12-24T20:18:54.464Z,8.99
2022-12-24T20:21:22.264Z,9.00
2022-12-24T20:23:50.124Z,8.93
2022-12-24T20:26:19.832Z,8.94
2022-12-24T20:28:47.362Z,8.97
2022-12-24T20:31:16.004Z,9.01
2022-12-24T20:33:44.192Z,9.03
2022-12-24T20:36:12.483Z,8.98
2022-12-24T20:38:40.045Z,8.87
2022-12-24T20:41:09.570Z,8.85
2022-12-24T20:43:44.991Z,8.84
2022-12-24T20:46:14.981Z,8.86
2022-12-24T20:48:42.319Z,8.87
2022-12-24T20:51:17.725Z,8.87
2022-12-24T20:53:51.876Z,8.91
2022-12-24T20:56:19.191Z,8.94
2022-12-24T20:58:46.921Z,8.95
2022-12-24T21:01:20.966Z,8.97
2022-12-24T21:03:51.040Z,8.99
2022-12-24T21:06:19.421Z,8.99
2022-12-24T21:08:52.254Z,9.00
2022-12-24T21:11:38.303Z,8.97
2022-12-24T21:14:05.527Z,8.85
2022-12-24T21:16:33.998Z,8.86
2022-12-24T21:19:07.574Z,8.89
2022-12-24T21:21:41.068Z,8.92
2022-12-24T21:24:08.681Z,8.93
2022-12-24T21:26:36.531Z,8.91
2022-12-24T21:29:04.608Z,8.91
2022-12-24T21:31:31.732Z,8.84
2022-12-24T21:33:58.709Z,8.82
2022-12-24T21:36:26.902Z,8.84
2022-12-24T21:38:54.326Z,8.83
2022-12-24T21:41:23.660Z,8.86
2022-12-24T21:43:52.762Z,8.87
2022-12-24T21:46:23.179Z,8.88
2022-12-24T21:49:11.201Z,8.94
2022-12-24T21:51:38.820Z,8.89
2022-12-24T21:54:25.588Z,8.83
2022-12-24T21:57:22.571Z,8.78
2022-12-24T21:59:51.065Z,8.73
2022-12-24T22:02:18.554Z,8.74
2022-12-24T22:04:46.040Z,8.77
2022-12-24T22:07:41.732Z,8.80
2022-12-24T22:10:29.331Z,8.79
2022-12-24T22:12:58.186Z,8.78
2022-12-24T22:15:24.932Z,8.82
2022-12-24T22:17:52.828Z,8.78
2022-12-24T22:20:19.509Z,8.81
2022-12-24T22:22:47.824Z,8.85
2022-12-24T22:25:14.882Z,8.84
2022-12-24T22:27:41.742Z,8.87
2022-12-24T22:30:09.206Z,8.90
2022-12-24T22:32:35.954Z,8.94
2022-12-24T22:35:02.750Z,8.96
2022-12-24T22:37:29.463Z,8.99
2022-12-24T22:39:56.215Z,9.02
2022-12-24T22:42:22.979Z,9.02
2022-12-24T22:44:49.717Z,9.03
2022-12-24T22:47:17.634Z,9.05
2022-12-24T22:49:44.490Z,9.10
2022-12-24T22:52:11.493Z,9.09
2022-12-24T22:54:38.306Z,9.13
2022-12-24T22:57:05.078Z,9.15
2022-12-24T22:59:31.956Z,9.15
2022-12-24T23:01:59.130Z,9.16
2022-12-24T23:04:26.167Z,9.12
2022-12-24T23:06:53.085Z,9.14
2022-12-24T23:09:19.804Z,9.14
2022-12-24T23:11:46.661Z,9.12
2022-12-24T23:14:37.729Z,9.10
2022-12-24T23:17:04.599Z,9.07
2022-12-24T23:19:33.383Z,9.05
2022-12-24T23:22:01.958Z,9.05
2022-12-24T23:24:28.827Z,9.04
2022-12-24T23:26:55.855Z,9.01
2022-12-24T23:29:22.746Z,8.99
2022-12-24T23:31:49.494Z,8.99
2022-12-24T23:34:16.252Z,9.00
2022-12-24T23:36:43.067Z,9.01
2022-12-24T23:39:09.913Z,9.03
2022-12-24T23:41:36.683Z,9.05
2022-12-24T23:44:03.813Z,9.08
2022-12-24T23:46:30.712Z,9.10
2022-12-24T23:48:57.785Z,9.10
2022-12-24T23:51:27.445Z,9.12
2022-12-24T23:53:56.568Z,9.17
2022-12-24T23:56:24.912Z,9.20
2022-12-24T23:58:52.976Z,9.20
